Time;durP1;ratioP1;P1;durP2;ratioP2;P2;SDS_P1;SDS_P2;PMS_P1;PMS_P2;Temp;Humidity;BMP_temperature;BMP_pressure;BME280_temperature;BME280_humidity;BME280_pressure;Samples;Min_cycle;Max_cycle;Signal;HPM_P1;HPM_P2
2023/06/04 00:02:05;;;;;;;21.48;14.25;;;19.60;99.90;;;;;;7389264;19;19930;-71
2023/06/04 00:04:31;;;;;;;19.20;14.30;;;19.60;99.90;;;;;;7394969;19;19915;-70
2023/06/04 00:06:56;;;;;;;20.63;13.68;;;19.60;99.90;;;;;;7392746;19;19947;-72
2023/06/04 00:09:22;;;;;;;17.70;13.30;;;19.60;99.90;;;;;;7394833;19;19935;-71
2023/06/04 00:11:48;;;;;;;18.20;12.73;;;19.60;99.90;;;;;;7397971;19;19927;-71
2023/06/04 00:14:17;;;;;;;17.98;13.57;;;19.50;99.90;;;;;;7391271;19;19915;-71
2023/06/04 00:16:43;;;;;;;17.85;12.65;;;19.50;99.90;;;;;;7394541;19;20014;-71
2023/06/04 00:19:09;;;;;;;17.77;10.13;;;19.40;99.90;;;;;;7388065;19;19935;-71
2023/06/04 00:21:35;;;;;;;18.00;11.57;;;19.40;99.90;;;;;;7394695;19;19966;-71
2023/06/04 00:24:02;;;;;;;17.02;12.00;;;19.40;99.90;;;;;;7392281;19;19918;-72
2023/06/04 00:26:28;;;;;;;17.52;13.25;;;19.40;99.90;;;;;;7392234;19;20267;-71
2023/06/04 00:28:56;;;;;;;14.98;11.30;;;19.40;99.90;;;;;;7391142;19;19929;-70
2023/06/04 00:31:22;;;;;;;16.13;11.75;;;19.40;99.90;;;;;;7391303;19;20471;-71
2023/06/04 00:33:48;;;;;;;18.15;13.05;;;19.50;99.90;;;;;;7393876;19;19943;-72
2023/06/04 00:36:14;;;;;;;15.60;10.90;;;19.50;99.90;;;;;;7391097;19;20469;-72
2023/06/04 00:38:40;;;;;;;14.75;10.05;;;19.60;99.90;;;;;;7389087;19;19918;-70
2023/06/04 00:41:06;;;;;;;14.38;9.27;;;19.60;99.90;;;;;;7387600;19;20783;-71
2023/06/04 00:43:32;;;;;;;15.88;10.32;;;19.60;99.90;;;;;;7394248;19;19918;-71
2023/06/04 00:45:58;;;;;;;15.45;10.57;;;19.60;99.90;;;;;;7391144;19;19918;-71
2023/06/04 00:48:27;;;;;;;13.20;9.15;;;19.60;99.90;;;;;;7392380;19;19929;-71
2023/06/04 00:50:54;;;;;;;15.15;10.30;;;19.60;99.90;;;;;;7391789;19;19970;-71
2023/06/04 00:53:22;;;;;;;15.55;10.32;;;19.60;99.90;;;;;;7390109;19;19914;-71
2023/06/04 00:55:47;;;;;;;14.98;10.43;;;19.60;99.90;;;;;;7385121;19;19926;-71
2023/06/04 00:58:15;;;;;;;16.58;10.55;;;19.70;99.90;;;;;;7389233;19;20371;-72
2023/06/04 01:00:42;;;;;;;17.52;11.80;;;19.80;99.90;;;;;;7389974;19;19918;-72
2023/06/04 01:03:17;;;;;;;15.20;10.13;;;19.70;99.90;;;;;;7400020;19;19914;-72
2023/06/04 01:06:12;;;;;;;15.75;11.25;;;19.70;99.90;;;;;;7398694;19;19926;-71
2023/06/04 01:08:42;;;;;;;14.10;9.52;;;19.70;99.90;;;;;;7398516;19;19938;-71
2023/06/04 01:11:08;;;;;;;15.70;10.75;;;19.60;99.90;;;;;;7399916;19;20340;-71
2023/06/04 01:13:34;;;;;;;17.92;11.88;;;19.60;99.90;;;;;;7399523;19;19918;-72
2023/06/04 01:16:00;;;;;;;19.25;12.20;;;19.60;99.90;;;;;;7400048;19;19915;-71
2023/06/04 01:18:29;;;;;;;19.17;12.35;;;19.50;99.90;;;;;;7399981;19;19918;-71
2023/06/04 01:21:08;;;;;;;20.70;12.32;;;19.60;99.90;;;;;;7398250;19;20356;-72
2023/06/04 01:23:46;;;;;;;17.60;11.88;;;19.60;99.90;;;;;;7400066;19;19939;-71
2023/06/04 01:26:12;;;;;;;16.38;12.20;;;19.60;99.90;;;;;;7395381;19;19942;-72
2023/06/04 01:28:39;;;;;;;18.88;11.65;;;19.70;99.90;;;;;;7401679;19;20291;-71
2023/06/04 01:31:08;;;;;;;18.85;12.27;;;19.70;99.90;;;;;;7393238;19;19946;-72
2023/06/04 01:33:34;;;;;;;21.30;12.35;;;19.80;99.90;;;;;;7399407;19;20319;-72
2023/06/04 01:36:01;;;;;;;18.25;11.55;;;19.80;99.90;;;;;;7398461;19;19914;-71
2023/06/04 01:38:27;;;;;;;16.70;10.88;;;19.80;99.90;;;;;;7394651;19;19954;-71
2023/06/04 01:40:56;;;;;;;18.25;12.02;;;19.80;99.90;;;;;;7399019;19;20301;-71
2023/06/04 01:43:22;;;;;;;17.02;11.93;;;19.80;99.90;;;;;;7367944;19;19920;-70
2023/06/04 01:45:48;;;;;;;15.20;10.93;;;19.80;99.90;;;;;;7395629;19;19923;-71
2023/06/04 01:48:14;;;;;;;18.30;12.30;;;19.80;99.90;;;;;;7392885;19;19923;-70
2023/06/04 01:50:40;;;;;;;21.48;12.68;;;19.80;99.90;;;;;;7392412;19;19918;-71
2023/06/04 01:53:06;;;;;;;22.88;14.00;;;19.80;99.90;;;;;;7393472;19;20014;-71
2023/06/04 01:55:34;;;;;;;20.35;14.18;;;19.60;99.90;;;;;;7392436;19;20007;-71
2023/06/04 01:58:00;;;;;;;24.13;15.93;;;19.50;99.90;;;;;;7394066;19;19911;-72
2023/06/04 02:00:26;;;;;;;21.67;14.00;;;19.50;99.90;;;;;;7388492;19;19935;-71
2023/06/04 02:02:52;;;;;;;21.55;14.93;;;19.50;99.90;;;;;;7392267;19;20212;-71
2023/06/04 02:05:18;;;;;;;21.00;15.07;;;19.50;99.90;;;;;;7389571;19;19932;-71
2023/06/04 02:07:47;;;;;;;20.67;14.07;;;19.50;99.90;;;;;;7391615;19;20339;-73
2023/06/04 02:10:18;;;;;;;21.70;15.85;;;19.50;99.90;;;;;;7388823;19;19919;-70
2023/06/04 02:13:03;;;;;;;23.67;16.08;;;19.50;99.90;;;;;;7363057;19;19919;-72
2023/06/04 02:15:30;;;;;;;25.88;15.48;;;19.50;99.90;;;;;;7393868;19;19926;-72
2023/06/04 02:18:00;;;;;;;;;;;19.50;99.90;;;;;;7397712;19;19931;-71
2023/06/04 02:20:28;;;;;;;22.33;15.93;;;19.40;99.90;;;;;;7392829;19;20345;-71
2023/06/04 02:22:57;;;;;;;24.25;16.30;;;19.40;99.90;;;;;;7390705;19;20352;-71
2023/06/04 02:25:23;;;;;;;26.00;17.45;;;19.40;99.90;;;;;;7393624;19;20277;-72
2023/06/04 02:27:49;;;;;;;27.13;17.83;;;19.30;99.90;;;;;;7395449;19;19915;-71
2023/06/04 02:30:16;;;;;;;27.80;17.58;;;19.40;99.90;;;;;;7391603;19;19923;-71
2023/06/04 02:32:44;;;;;;;29.88;18.30;;;19.40;99.90;;;;;;7392043;19;19931;-71
2023/06/04 02:35:10;;;;;;;29.63;18.45;;;19.40;99.90;;;;;;7392962;19;19923;-71
2023/06/04 02:37:36;;;;;;;26.80;17.33;;;19.30;99.90;;;;;;7395306;19;19911;-71
2023/06/04 02:40:03;;;;;;;29.55;18.48;;;19.20;99.90;;;;;;7396865;19;19939;-72
2023/06/04 02:42:29;;;;;;;25.70;17.10;;;19.20;99.90;;;;;;7399677;19;19918;-72
2023/06/04 02:44:55;;;;;;;29.58;16.50;;;19.10;99.90;;;;;;7398630;19;20024;-71
2023/06/04 02:47:21;;;;;;;26.40;17.33;;;19.00;99.90;;;;;;7395345;19;19918;-71
2023/06/04 02:49:46;;;;;;;25.27;17.23;;;19.00;99.90;;;;;;7400720;19;19925;-71
2023/06/04 02:52:12;;;;;;;27.83;18.08;;;19.00;99.90;;;;;;7396787;19;19922;-71
2023/06/04 02:54:38;;;;;;;29.48;17.75;;;19.00;99.90;;;;;;7400464;19;19990;-71
2023/06/04 02:57:04;;;;;;;31.98;17.48;;;19.00;99.90;;;;;;7394021;19;20387;-72
2023/06/04 02:59:30;;;;;;;27.40;17.15;;;18.90;99.90;;;;;;7393715;19;19941;-72
2023/06/04 03:01:59;;;;;;;26.10;16.70;;;18.90;99.90;;;;;;7399170;19;19914;-72
2023/06/04 03:04:25;;;;;;;28.02;17.52;;;18.90;99.90;;;;;;7398203;19;19931;-72
2023/06/04 03:06:57;;;;;;;26.08;17.83;;;18.90;99.90;;;;;;7397939;19;19919;-72
2023/06/04 03:09:23;;;;;;;27.92;18.02;;;18.80;99.90;;;;;;7397848;19;19923;-72
2023/06/04 03:11:49;;;;;;;25.33;17.50;;;18.80;99.90;;;;;;7401085;19;19938;-71
2023/06/04 03:14:16;;;;;;;29.65;17.80;;;18.80;99.90;;;;;;7401565;19;20649;-71
2023/06/04 03:16:42;;;;;;;25.30;16.77;;;18.70;99.90;;;;;;7404602;19;19910;-72
2023/06/04 03:19:08;;;;;;;25.55;16.83;;;18.70;99.90;;;;;;7404247;19;20342;-72
2023/06/04 03:21:34;;;;;;;28.17;18.88;;;18.80;99.90;;;;;;7403432;19;19929;-71
2023/06/04 03:24:00;;;;;;;29.15;19.15;;;18.70;99.90;;;;;;7404591;19;19962;-72
2023/06/04 03:26:26;;;;;;;26.80;18.30;;;18.70;99.90;;;;;;7400660;19;19946;-72
2023/06/04 03:28:52;;;;;;;28.83;17.73;;;18.60;99.90;;;;;;7403124;19;19919;-72
2023/06/04 03:31:18;;;;;;;28.80;18.73;;;18.60;99.90;;;;;;7400796;19;19943;-72
2023/06/04 03:33:44;;;;;;;28.00;17.67;;;18.60;99.90;;;;;;7401925;19;20323;-72
2023/06/04 03:36:10;;;;;;;29.30;18.52;;;18.50;99.90;;;;;;7399021;19;19921;-72
2023/06/04 03:38:35;;;;;;;27.80;18.17;;;18.50;99.90;;;;;;7399608;19;19930;-72
2023/06/04 03:41:01;;;;;;;30.05;18.77;;;18.50;99.90;;;;;;7383215;19;19919;-70
2023/06/04 03:43:27;;;;;;;32.67;19.15;;;18.40;99.90;;;;;;7402099;19;19918;-71
2023/06/04 03:45:53;;;;;;;29.75;18.75;;;18.50;99.90;;;;;;7404141;19;19914;-71
2023/06/04 03:48:18;;;;;;;31.85;18.50;;;18.50;99.90;;;;;;7372184;19;20374;-72
2023/06/04 03:50:45;;;;;;;29.63;19.13;;;18.40;99.90;;;;;;7401743;19;19923;-70
2023/06/04 03:53:11;;;;;;;30.42;18.98;;;18.40;99.90;;;;;;7400813;19;19918;-71
2023/06/04 03:55:37;;;;;;;30.25;18.20;;;18.40;99.90;;;;;;7402326;19;19926;-71
2023/06/04 03:58:03;;;;;;;27.75;17.38;;;18.40;99.90;;;;;;7403041;19;19922;-71
2023/06/04 04:00:38;;;;;;;26.02;17.90;;;18.40;99.90;;;;;;7400960;19;19930;-73
2023/06/04 04:03:04;;;;;;;26.52;17.33;;;18.50;99.90;;;;;;7399485;19;20257;-70
2023/06/04 04:05:31;;;;;;;23.75;16.20;;;18.50;99.90;;;;;;7399110;19;19922;-72
2023/06/04 04:07:57;;;;;;;25.45;16.90;;;18.40;99.90;;;;;;7400546;19;19923;-72
2023/06/04 04:10:23;;;;;;;24.35;17.80;;;18.40;99.90;;;;;;7400055;19;20366;-71
2023/06/04 04:12:50;;;;;;;31.02;19.90;;;18.40;99.90;;;;;;7403944;19;19933;-71
2023/06/04 04:15:16;;;;;;;30.30;19.73;;;18.40;99.90;;;;;;7400603;19;19922;-71
2023/06/04 04:17:42;;;;;;;33.08;21.55;;;18.40;99.90;;;;;;7403168;19;19918;-72
2023/06/04 04:20:08;;;;;;;34.53;21.52;;;18.40;99.90;;;;;;7399995;19;20041;-71
2023/06/04 04:22:34;;;;;;;35.65;21.92;;;18.40;99.90;;;;;;7402672;19;19932;-72
2023/06/04 04:25:01;;;;;;;32.60;21.17;;;18.40;99.90;;;;;;7405527;19;20335;-72
2023/06/04 04:27:30;;;;;;;31.92;20.83;;;18.30;99.90;;;;;;7397936;19;19923;-72
2023/06/04 04:29:59;;;;;;;30.98;19.63;;;18.30;99.90;;;;;;7401712;19;20006;-72
2023/06/04 04:32:26;;;;;;;29.98;19.33;;;18.20;99.90;;;;;;7399918;19;19943;-71
2023/06/04 04:34:54;;;;;;;28.27;19.30;;;18.30;99.90;;;;;;7349147;19;19942;-72
2023/06/04 04:37:21;;;;;;;32.13;19.17;;;18.20;99.90;;;;;;7399957;19;20256;-72
2023/06/04 04:39:49;;;;;;;31.23;18.70;;;18.20;99.90;;;;;;7403012;19;19919;-72
2023/06/04 04:42:15;;;;;;;32.80;19.88;;;18.30;99.90;;;;;;7398831;19;20583;-72
2023/06/04 04:44:41;;;;;;;31.17;19.80;;;18.30;99.90;;;;;;7380225;19;19998;-72
2023/06/04 04:47:06;;;;;;;28.70;18.35;;;18.30;99.90;;;;;;7376609;19;19940;-72
2023/06/04 04:49:32;;;;;;;28.15;17.80;;;18.30;99.90;;;;;;7401208;19;19923;-72
2023/06/04 04:51:58;;;;;;;30.08;18.40;;;18.30;99.90;;;;;;7399627;19;20364;-73
2023/06/04 04:54:24;;;;;;;33.10;19.63;;;18.30;99.90;;;;;;7399900;19;19930;-72
2023/06/04 04:56:50;;;;;;;35.83;21.13;;;18.40;99.90;;;;;;7401990;19;19939;-72
2023/06/04 04:59:18;;;;;;;32.83;19.73;;;18.40;99.90;;;;;;7400832;19;20256;-72
2023/06/04 05:01:44;;;;;;;34.28;20.60;;;18.40;99.90;;;;;;7399576;19;19918;-72
2023/06/04 05:04:10;;;;;;;33.42;19.98;;;18.40;99.90;;;;;;7400524;19;19929;-72
2023/06/04 05:06:37;;;;;;;33.47;20.45;;;18.50;99.90;;;;;;7402483;19;20299;-73
2023/06/04 05:09:03;;;;;;;33.03;20.73;;;18.50;99.90;;;;;;7398454;19;20424;-72
2023/06/04 05:11:29;;;;;;;30.30;20.70;;;18.50;99.90;;;;;;7401853;19;19914;-72
2023/06/04 05:13:55;;;;;;;31.63;19.65;;;18.50;99.90;;;;;;7400673;19;19937;-72
2023/06/04 05:16:22;;;;;;;32.95;20.23;;;18.50;99.90;;;;;;7400788;19;19954;-71
2023/06/04 05:18:51;;;;;;;34.00;20.38;;;18.60;99.90;;;;;;7398513;19;20351;-71
2023/06/04 05:21:17;;;;;;;31.40;19.88;;;18.50;99.90;;;;;;7398416;19;20365;-72
2023/06/04 05:23:45;;;;;;;32.38;20.70;;;18.60;99.90;;;;;;7399700;19;19926;-72
2023/06/04 05:26:10;;;;;;;34.03;21.15;;;18.60;99.90;;;;;;7397601;19;19922;-72
2023/06/04 05:28:36;;;;;;;29.67;19.00;;;18.70;99.90;;;;;;7399809;19;20375;-72
2023/06/04 05:31:02;;;;;;;29.50;18.23;;;18.80;99.90;;;;;;7397600;19;20260;-72
2023/06/04 05:33:30;;;;;;;28.27;18.45;;;18.80;99.90;;;;;;7399311;19;19990;-72
2023/06/04 05:35:57;;;;;;;33.85;21.50;;;18.90;99.90;;;;;;7397710;19;19964;-72
2023/06/04 05:38:26;;;;;;;28.83;19.42;;;18.90;99.90;;;;;;7397810;19;19915;-72
2023/06/04 05:40:55;;;;;;;27.23;18.00;;;18.90;99.90;;;;;;7398550;19;19918;-72
2023/06/04 05:43:21;;;;;;;26.98;17.40;;;19.00;99.90;;;;;;7400484;19;19974;-71
2023/06/04 05:45:47;;;;;;;29.70;17.98;;;19.00;99.90;;;;;;7400486;19;19941;-72
2023/06/04 05:48:13;;;;;;;27.98;17.95;;;19.10;99.90;;;;;;7398527;19;19925;-72
2023/06/04 05:50:39;;;;;;;24.75;16.17;;;19.10;99.90;;;;;;7396801;19;19998;-72
2023/06/04 05:53:05;;;;;;;26.38;15.48;;;19.10;99.90;;;;;;7395931;19;19937;-72
2023/06/04 05:55:31;;;;;;;24.90;15.35;;;19.20;99.90;;;;;;7399836;19;19982;-72
2023/06/04 05:57:56;;;;;;;25.45;16.30;;;19.20;99.90;;;;;;7400406;19;19932;-72
2023/06/04 06:00:23;;;;;;;24.98;15.77;;;19.30;99.90;;;;;;7399362;19;19933;-72
2023/06/04 06:02:53;;;;;;;26.80;17.63;;;19.40;99.90;;;;;;7398544;19;19922;-72
2023/06/04 06:05:19;;;;;;;29.55;18.10;;;19.40;99.90;;;;;;7396927;19;19957;-72
2023/06/04 06:07:46;;;;;;;27.75;17.45;;;19.50;99.90;;;;;;7399649;19;19943;-72
2023/06/04 06:10:12;;;;;;;;;;;19.60;99.90;;;;;;7400012;19;20414;-72
2023/06/04 06:12:38;;;;;;;26.95;16.77;;;19.70;99.90;;;;;;7380415;19;19919;-71
2023/06/04 06:15:04;;;;;;;28.42;17.40;;;19.80;99.90;;;;;;7403598;19;20337;-72
2023/06/04 06:17:30;;;;;;;22.95;15.02;;;19.80;99.90;;;;;;7405626;19;20622;-71
2023/06/04 06:19:57;;;;;;;24.23;16.00;;;19.90;99.90;;;;;;7405956;19;19982;-72
2023/06/04 06:22:23;;;;;;;23.35;14.52;;;20.00;99.90;;;;;;7404310;19;19923;-72
2023/06/04 06:24:49;;;;;;;20.67;13.68;;;20.00;99.80;;;;;;7403778;19;19917;-72
2023/06/04 06:27:16;;;;;;;24.55;15.23;;;20.00;99.20;;;;;;7400234;19;19915;-72
2023/06/04 06:29:42;;;;;;;;;;;20.10;99.20;;;;;;7406835;19;20732;-71
2023/06/04 06:32:08;;;;;;;23.58;14.75;;;20.20;98.80;;;;;;7402798;19;20236;-72
2023/06/04 06:34:34;;;;;;;21.92;14.40;;;20.20;98.30;;;;;;7403458;19;20028;-72
2023/06/04 06:37:00;;;;;;;20.77;13.98;;;20.30;98.10;;;;;;7405478;19;19929;-71
2023/06/04 06:39:26;;;;;;;21.50;13.63;;;20.30;97.80;;;;;;7402856;19;19926;-73
2023/06/04 06:41:52;;;;;;;17.92;12.57;;;20.40;97.60;;;;;;7404676;19;19919;-72
2023/06/04 06:44:18;;;;;;;16.40;12.02;;;20.50;96.70;;;;;;7402755;19;19921;-73
2023/06/04 06:46:44;;;;;;;19.50;11.80;;;20.60;96.30;;;;;;7405030;19;19926;-72
2023/06/04 06:49:10;;;;;;;16.83;11.52;;;20.60;95.50;;;;;;7400852;19;20381;-72
2023/06/04 06:51:35;;;;;;;19.63;12.70;;;20.70;95.00;;;;;;7404890;19;19915;-72
2023/06/04 06:54:01;;;;;;;18.50;12.75;;;20.60;95.00;;;;;;7404403;19;19914;-72
2023/06/04 06:56:27;;;;;;;19.95;12.77;;;20.50;95.20;;;;;;7404790;19;19918;-72
2023/06/04 06:58:53;;;;;;;19.67;12.20;;;20.50;95.10;;;;;;7403558;19;19946;-72
2023/06/04 07:01:18;;;;;;;19.00;12.23;;;20.60;95.00;;;;;;7404495;19;19915;-72
2023/06/04 07:03:44;;;;;;;17.20;11.32;;;20.80;94.90;;;;;;7352109;19;19978;-72
2023/06/04 07:06:10;;;;;;;16.90;11.20;;;20.80;94.30;;;;;;7403474;19;19945;-73
2023/06/04 07:08:36;;;;;;;15.85;10.60;;;21.00;93.90;;;;;;7403688;19;19936;-72
2023/06/04 07:11:03;;;;;;;16.17;10.50;;;21.10;93.30;;;;;;7406106;19;19919;-72
2023/06/04 07:13:31;;;;;;;20.17;12.93;;;21.20;93.10;;;;;;7403854;19;19923;-71
2023/06/04 07:15:58;;;;;;;18.73;12.93;;;21.10;93.10;;;;;;7406001;19;19942;-73
2023/06/04 07:18:24;;;;;;;18.40;11.18;;;21.10;93.00;;;;;;7401091;19;19919;-73
2023/06/04 07:20:50;;;;;;;14.80;9.93;;;21.30;93.00;;;;;;7404867;19;19925;-72
2023/06/04 07:23:16;;;;;;;;;;;21.50;92.50;;;;;;7400481;19;19925;-72
2023/06/04 07:25:42;;;;;;;16.90;9.35;;;21.60;92.10;;;;;;7403392;19;19919;-72
2023/06/04 07:28:08;;;;;;;13.05;8.52;;;21.70;91.60;;;;;;7399582;19;19918;-73
2023/06/04 07:30:33;;;;;;;12.60;8.25;;;21.80;91.50;;;;;;7401413;19;19914;-72
2023/06/04 07:32:59;;;;;;;14.25;8.77;;;21.90;90.90;;;;;;7401003;19;19923;-72
2023/06/04 07:35:25;;;;;;;15.98;8.60;;;22.00;90.50;;;;;;7403133;19;19918;-72
2023/06/04 07:37:51;;;;;;;12.15;7.95;;;22.10;90.10;;;;;;7401577;19;19926;-73
2023/06/04 07:40:18;;;;;;;12.57;8.32;;;22.30;89.40;;;;;;7402423;19;19922;-73
2023/06/04 07:42:45;;;;;;;12.75;8.52;;;22.40;88.00;;;;;;7400101;19;19967;-72
2023/06/04 07:45:11;;;;;;;12.63;8.55;;;22.40;87.30;;;;;;7399989;19;19918;-72
2023/06/04 07:47:37;;;;;;;13.73;10.30;;;22.60;86.60;;;;;;7401581;19;20266;-72
2023/06/04 07:50:04;;;;;;;12.73;8.93;;;22.80;85.60;;;;;;7400408;19;19929;-72
2023/06/04 07:52:30;;;;;;;13.40;9.23;;;22.90;84.40;;;;;;7395459;19;19929;-72
2023/06/04 07:54:56;;;;;;;11.60;9.15;;;23.00;83.60;;;;;;7400818;19;19926;-72
2023/06/04 07:57:25;;;;;;;13.70;10.32;;;23.10;83.30;;;;;;7401891;19;21128;-73
2023/06/04 07:59:51;;;;;;;14.73;9.45;;;23.00;83.00;;;;;;7402304;19;19927;-71
2023/06/04 08:02:18;;;;;;;15.60;10.35;;;23.00;83.00;;;;;;7402224;19;20274;-71
2023/06/04 08:04:44;;;;;;;;;;;23.00;83.00;;;;;;7405333;19;19907;-72
2023/06/04 08:07:09;;;;;;;14.38;10.52;;;23.00;82.90;;;;;;7401042;19;19910;-73
2023/06/04 08:09:35;;;;;;;13.40;9.63;;;23.10;82.50;;;;;;7403509;19;19927;-72
2023/06/04 08:12:01;;;;;;;16.52;12.35;;;23.20;82.20;;;;;;7404084;19;20350;-72
2023/06/04 08:14:27;;;;;;;17.95;12.95;;;23.20;82.00;;;;;;7402957;19;19935;-72
2023/06/04 08:16:53;;;;;;;16.55;11.60;;;23.20;81.80;;;;;;7403490;19;20464;-73
2023/06/04 08:19:20;;;;;;;17.30;12.38;;;23.30;82.10;;;;;;7399114;19;20265;-72
2023/06/04 08:21:47;;;;;;;;;;;23.30;81.70;;;;;;7403338;19;19918;-71
2023/06/04 08:24:12;;;;;;;19.45;13.70;;;23.30;81.80;;;;;;7400377;19;19910;-72
2023/06/04 08:26:39;;;;;;;20.00;15.15;;;23.40;81.80;;;;;;7400860;19;19929;-72
2023/06/04 08:29:05;;;;;;;;;;;23.40;82.10;;;;;;7406692;19;19914;-73
2023/06/04 08:31:31;;;;;;;17.45;12.68;;;23.40;82.30;;;;;;7391695;19;19918;-72
2023/06/04 08:33:57;;;;;;;17.52;13.13;;;23.50;81.80;;;;;;7400672;19;20573;-72
2023/06/04 08:36:22;;;;;;;15.30;12.10;;;23.40;82.90;;;;;;7398323;19;19973;-73
2023/06/04 08:38:50;;;;;;;16.23;12.25;;;23.30;84.20;;;;;;7398629;19;19911;-73
2023/06/04 08:41:29;;;;;;;15.60;12.32;;;23.50;83.80;;;;;;7390167;19;20605;-73
2023/06/04 08:43:59;;;;;;;17.05;12.32;;;23.40;82.70;;;;;;7395818;19;19939;-72
2023/06/04 08:46:27;;;;;;;16.58;11.45;;;23.30;84.20;;;;;;7376677;19;19910;-72
2023/06/04 08:48:56;;;;;;;16.58;12.70;;;23.50;83.40;;;;;;7399005;19;19925;-72
2023/06/04 08:51:22;;;;;;;14.90;12.13;;;23.40;84.40;;;;;;7399021;19;19994;-72
2023/06/04 08:53:52;;;;;;;19.40;11.15;;;23.30;85.20;;;;;;7398541;19;19945;-73
2023/06/04 08:56:19;;;;;;;15.00;11.35;;;23.00;86.80;;;;;;7399188;19;19922;-74
2023/06/04 08:58:46;;;;;;;15.48;12.50;;;23.00;87.40;;;;;;7402186;19;20265;-73
2023/06/04 09:01:14;;;;;;;16.90;11.18;;;22.90;88.40;;;;;;7398859;19;19922;-73
2023/06/04 09:03:41;;;;;;;13.45;9.88;;;23.10;88.00;;;;;;7401016;19;19914;-72
2023/06/04 09:06:08;;;;;;;12.30;9.90;;;23.40;88.00;;;;;;7397322;19;19960;-73
2023/06/04 09:08:37;;;;;;;11.50;9.20;;;23.90;86.20;;;;;;7400556;19;19914;-73
2023/06/04 09:11:10;;;;;;;13.77;9.27;;;24.00;85.30;;;;;;7401182;19;20287;-74
2023/06/04 09:13:36;;;;;;;10.80;8.63;;;24.20;84.10;;;;;;7400906;19;19918;-73
2023/06/04 09:16:03;;;;;;;11.60;8.50;;;24.30;83.60;;;;;;7398932;19;19962;-73
2023/06/04 09:18:29;;;;;;;11.80;7.80;;;24.40;82.60;;;;;;7398286;19;19919;-73
2023/06/04 09:21:08;;;;;;;9.63;7.00;;;24.80;82.60;;;;;;7398788;19;19981;-73
2023/06/04 09:23:44;;;;;;;10.95;8.07;;;25.20;80.70;;;;;;7397718;19;19951;-73
2023/06/04 09:26:11;;;;;;;10.88;7.50;;;25.40;79.20;;;;;;7396954;19;20337;-74
2023/06/04 09:28:41;;;;;;;12.32;8.63;;;25.30;78.00;;;;;;7399297;19;19919;-73
2023/06/04 09:31:10;;;;;;;10.52;7.82;;;25.10;78.80;;;;;;7395942;19;19914;-73
2023/06/04 09:33:43;;;;;;;9.25;6.75;;;24.90;80.30;;;;;;7398817;19;19914;-73
2023/06/04 09:36:09;;;;;;;10.38;7.57;;;24.80;80.60;;;;;;7398543;19;19915;-73
2023/06/04 09:38:35;;;;;;;11.20;7.35;;;24.50;80.40;;;;;;7399517;19;19918;-74
2023/06/04 09:41:04;;;;;;;10.13;6.68;;;24.40;81.40;;;;;;7399846;19;20063;-73
2023/06/04 09:43:32;;;;;;;10.80;6.75;;;24.30;81.70;;;;;;7396963;19;20000;-73
2023/06/04 09:46:10;;;;;;;8.45;5.70;;;24.30;81.10;;;;;;7396105;19;20347;-74
2023/06/04 09:48:36;;;;;;;8.93;6.82;;;24.40;81.00;;;;;;7394854;19;19918;-73
2023/06/04 09:51:12;;;;;;;8.93;6.45;;;24.50;80.10;;;;;;7398888;19;19918;-74
2023/06/04 09:53:38;;;;;;;8.82;6.30;;;24.30;81.20;;;;;;7398449;19;19907;-73
2023/06/04 09:56:07;;;;;;;7.45;5.22;;;24.20;81.70;;;;;;7377018;19;19917;-74
2023/06/04 09:58:33;;;;;;;7.25;5.55;;;24.50;80.90;;;;;;7398382;19;19970;-72
2023/06/04 10:01:08;;;;;;;7.72;5.13;;;24.50;80.30;;;;;;7399128;19;20011;-73
2023/06/04 10:03:35;;;;;;;7.15;4.70;;;24.60;79.60;;;;;;7398585;19;19919;-72
2023/06/04 10:06:05;;;;;;;7.32;5.10;;;24.70;79.80;;;;;;7394394;19;19918;-73
2023/06/04 10:08:32;;;;;;;6.30;4.13;;;25.30;76.90;;;;;;7397325;19;19925;-72
2023/06/04 10:11:05;;;;;;;10.30;5.47;;;25.40;75.30;;;;;;7377765;19;19981;-73
2023/06/04 10:13:43;;;;;;;8.63;5.43;;;25.20;75.90;;;;;;7390407;19;19911;-74
2023/06/04 10:16:10;;;;;;;6.18;4.47;;;25.40;75.40;;;;;;7397801;19;19929;-74
2023/06/04 10:18:37;;;;;;;10.02;6.82;;;25.50;74.30;;;;;;7398622;19;20263;-73
2023/06/04 10:21:03;;;;;;;7.72;4.53;;;25.60;73.30;;;;;;7398440;19;20350;-74
2023/06/04 10:23:29;;;;;;;7.72;4.93;;;25.70;71.90;;;;;;7397063;19;19919;-73
2023/06/04 10:25:56;;;;;;;8.30;4.97;;;25.70;72.20;;;;;;7395132;19;19915;-74
2023/06/04 10:28:23;;;;;;;6.97;4.50;;;25.90;72.50;;;;;;7396186;19;19946;-73
2023/06/04 10:30:53;;;;;;;9.00;4.78;;;26.10;71.00;;;;;;7397116;19;19922;-74
2023/06/04 10:33:20;;;;;;;7.80;4.78;;;26.40;70.20;;;;;;7397054;19;19939;-73
2023/06/04 10:35:46;;;;;;;8.88;6.78;;;26.60;70.00;;;;;;7397393;19;20343;-75
2023/06/04 10:38:16;;;;;;;6.88;4.95;;;26.10;70.20;;;;;;7396344;19;19951;-74
2023/06/04 10:40:42;;;;;;;7.20;4.90;;;26.20;69.90;;;;;;7398809;19;19914;-73
2023/06/04 10:43:13;;;;;;;6.50;4.45;;;26.40;69.90;;;;;;7396315;19;19922;-73
2023/06/04 10:45:40;;;;;;;7.28;5.00;;;26.70;69.40;;;;;;7392378;19;19922;-73
2023/06/04 10:48:09;;;;;;;6.80;4.38;;;26.60;69.60;;;;;;7395487;19;19922;-73
2023/06/04 10:50:47;;;;;;;6.85;4.70;;;26.70;70.00;;;;;;7396510;19;19922;-73
2023/06/04 10:53:13;;;;;;;;;;;26.90;69.10;;;;;;7396306;19;20250;-73
2023/06/04 10:55:49;;;;;;;8.15;5.28;;;26.90;68.20;;;;;;7397267;19;19931;-74
2023/06/04 10:58:15;;;;;;;6.70;4.60;;;26.60;69.00;;;;;;7396090;19;19947;-73
2023/06/04 11:00:45;;;;;;;7.53;4.90;;;26.80;69.20;;;;;;7404337;19;19942;-73
2023/06/04 11:03:13;;;;;;;6.68;5.03;;;26.90;67.70;;;;;;7402647;19;20376;-74
2023/06/04 11:05:44;;;;;;;7.07;4.75;;;26.70;67.60;;;;;;7400706;19;20036;-73
2023/06/04 11:08:13;;;;;;;6.82;4.43;;;26.60;68.10;;;;;;7404751;19;19938;-72
2023/06/04 11:10:43;;;;;;;6.88;5.30;;;26.90;68.00;;;;;;7399903;19;19932;-73
2023/06/04 11:13:09;;;;;;;7.70;5.47;;;26.70;67.40;;;;;;7379625;19;19947;-74
2023/06/04 11:15:39;;;;;;;7.55;5.57;;;26.20;68.40;;;;;;7403619;19;19922;-73
2023/06/04 11:18:05;;;;;;;10.57;5.40;;;26.10;68.30;;;;;;7402170;19;19962;-73
2023/06/04 11:20:31;;;;;;;7.80;4.60;;;26.30;68.10;;;;;;7404030;19;20290;-74
2023/06/04 11:23:03;;;;;;;6.70;4.88;;;26.50;68.00;;;;;;7403143;19;19947;-73
2023/06/04 11:25:34;;;;;;;9.05;6.95;;;26.70;67.40;;;;;;7401169;19;19910;-73
2023/06/04 11:28:01;;;;;;;7.15;5.32;;;26.30;68.40;;;;;;7403675;19;19923;-73
2023/06/04 11:30:28;;;;;;;9.02;6.65;;;26.30;68.10;;;;;;7403736;19;19933;-73
2023/06/04 11:33:02;;;;;;;7.97;5.13;;;26.40;67.80;;;;;;7402940;19;19922;-73
2023/06/04 11:35:28;;;;;;;7.30;4.95;;;26.40;68.00;;;;;;7402189;19;19914;-73
2023/06/04 11:37:55;;;;;;;9.32;4.72;;;26.40;68.70;;;;;;7399737;19;19915;-73
2023/06/04 11:40:22;;;;;;;8.27;6.82;;;26.70;68.70;;;;;;7401662;19;19925;-73
2023/06/04 11:42:49;;;;;;;6.57;5.10;;;26.20;68.70;;;;;;7401053;19;19918;-73
2023/06/04 11:45:17;;;;;;;6.65;5.53;;;26.30;69.20;;;;;;7402060;19;19933;-74
2023/06/04 11:47:56;;;;;;;7.70;5.85;;;26.20;70.00;;;;;;7403077;19;19919;-73
2023/06/04 11:50:26;;;;;;;7.43;5.18;;;26.20;69.20;;;;;;7370443;19;19934;-74
2023/06/04 11:52:53;;;;;;;9.40;6.13;;;26.30;68.80;;;;;;7402533;19;20365;-74
2023/06/04 11:55:22;;;;;;;7.07;5.18;;;26.90;67.90;;;;;;7398757;19;19927;-73
2023/06/04 11:57:48;;;;;;;9.23;4.47;;;26.80;68.20;;;;;;7402205;19;20339;-73
2023/06/04 12:00:15;;;;;;;9.93;5.78;;;27.50;66.50;;;;;;7403049;19;19922;-73
2023/06/04 12:02:53;;;;;;;8.93;6.25;;;27.00;65.30;;;;;;7404284;19;19922;-73
2023/06/04 12:05:20;;;;;;;7.05;4.80;;;26.60;64.60;;;;;;7402934;19;19926;-74
2023/06/04 12:07:47;;;;;;;6.38;3.97;;;26.60;63.50;;;;;;7367977;19;19918;-73
2023/06/04 12:10:13;;;;;;;7.88;5.60;;;26.70;63.00;;;;;;7389686;19;19948;-75
2023/06/04 12:12:42;;;;;;;7.57;5.43;;;26.80;61.10;;;;;;7390502;19;19972;-75
2023/06/04 12:15:09;;;;;;;7.93;5.35;;;26.60;64.20;;;;;;7391453;19;19927;-74
2023/06/04 12:17:37;;;;;;;6.97;4.13;;;26.70;62.60;;;;;;7392395;19;19914;-73
2023/06/04 12:20:05;;;;;;;7.15;3.78;;;26.90;63.90;;;;;;7389597;19;19926;-74
2023/06/04 12:22:31;;;;;;;6.35;5.18;;;27.00;62.80;;;;;;7398126;19;19922;-74
2023/06/04 12:25:00;;;;;;;7.85;4.78;;;27.70;61.80;;;;;;7386190;19;20494;-73
2023/06/04 12:27:26;;;;;;;6.13;3.90;;;27.10;62.10;;;;;;7395927;19;19918;-73
2023/06/04 12:29:56;;;;;;;;;;;27.00;62.60;;;;;;7393389;19;19915;-74
2023/06/04 12:32:22;;;;;;;5.97;3.60;;;27.60;61.90;;;;;;7388057;19;19959;-74
2023/06/04 12:34:48;;;;;;;7.20;4.40;;;28.30;59.70;;;;;;7396779;19;19914;-73
2023/06/04 12:37:14;;;;;;;7.10;4.32;;;27.80;60.70;;;;;;7396067;19;19986;-73